Airport View

Enter AWOS ICAO identifier for current METAR.

ex. KFNL

KPEO 181053Z AUTO 16004KT 10SM OVC100 M10/M14 A3045 RMK AO2 SLP333 T11001139

18 Jan 2020 11:24

Frequency: 121.175

Phone: 315-536-4102

Other Area AWOS: KITH - KDSV - KELM - K6B9

TAF AMD KITH 180842Z 1809/1906 14006KT P6SM OVC190 FM181700 15015G25KT 1 1/2SM -SN BLSN OVC025 FM190100 18016KT 5SM -SHSN BLSN OVC015 WS020/20045KT FM190500 22010KT 3SM -SHSNRA OVC015